Time;durP1;ratioP1;P1;durP2;ratioP2;P2;SDS_P1;SDS_P2;PMS_P1;PMS_P2;Temp;Humidity;BMP_temperature;BMP_pressure;BME280_temperature;BME280_humidity;BME280_pressure;Samples;Min_cycle;Max_cycle;Signal;HPM_P1;HPM_P2
2022/05/11 00:01:25;;;;;;;1.85;1.15;;;;;;;10.57;40.78;99124.53;5051777;28;20360;-61
2022/05/11 00:03:52;;;;;;;3.15;1.40;;;;;;;10.60;41.70;99123.59;5053606;28;20398;-62
2022/05/11 00:06:17;;;;;;;3.47;1.60;;;;;;;10.36;40.77;99119.13;5055351;28;20025;-61
2022/05/11 00:08:43;;;;;;;3.13;1.52;;;;;;;10.50;41.33;99116.13;5055171;28;20056;-62
2022/05/11 00:11:08;;;;;;;2.47;1.38;;;;;;;10.53;41.58;99115.16;5055456;28;20040;-62
2022/05/11 00:13:34;;;;;;;1.38;1.00;;;;;;;10.56;41.26;99122.00;5054924;28;20036;-61
2022/05/11 00:16:00;;;;;;;1.85;1.00;;;;;;;10.42;41.39;99112.94;5055247;28;20112;-62
2022/05/11 00:18:26;;;;;;;2.72;1.30;;;;;;;10.44;41.28;99111.13;5054969;28;20029;-63
2022/05/11 00:20:51;;;;;;;1.85;1.30;;;;;;;10.49;41.71;99111.84;5048846;28;20038;-61
2022/05/11 00:23:17;;;;;;;1.25;1.15;;;;;;;10.33;41.11;99107.97;5039687;28;20025;-61
2022/05/11 00:25:44;;;;;;;3.35;1.20;;;;;;;10.34;40.95;99114.88;5054607;28;20041;-62
2022/05/11 00:28:10;;;;;;;3.13;1.27;;;;;;;10.27;41.01;99116.78;5042952;28;20075;-63
2022/05/11 00:30:36;;;;;;;1.38;1.10;;;;;;;10.30;40.69;99108.06;5050780;28;20017;-62
2022/05/11 00:33:02;;;;;;;1.70;1.10;;;;;;;10.39;39.80;99101.78;5054733;28;20554;-60
2022/05/11 00:35:33;;;;;;;2.25;1.35;;;;;;;10.36;41.01;99108.78;5050380;28;20025;-60
2022/05/11 00:37:59;;;;;;;1.73;1.20;;;;;;;10.37;40.46;99101.84;5036179;28;20037;-60
2022/05/11 00:40:25;;;;;;;2.53;1.40;;;;;;;10.24;40.18;99087.56;5055136;28;20086;-61
2022/05/11 00:42:50;;;;;;;2.28;1.60;;;;;;;10.33;40.34;99090.72;5054455;28;20037;-61
2022/05/11 00:45:16;;;;;;;3.33;1.60;;;;;;;10.27;41.51;99097.81;5054610;28;20047;-60
2022/05/11 00:47:51;;;;;;;1.88;1.13;;;;;;;10.03;40.55;99043.31;5054724;28;20025;-61
2022/05/11 00:50:25;;;;;;;2.08;1.42;;;;;;;9.97;40.03;99039.16;5054475;28;20025;-61
2022/05/11 00:53:09;;;;;;;2.70;1.20;;;;;;;10.34;40.82;99087.25;5054709;28;20040;-62
2022/05/11 00:55:40;;;;;;;3.83;1.50;;;;;;;10.32;40.35;99098.53;5054718;28;20467;-62
2022/05/11 00:58:11;;;;;;;2.60;1.30;;;;;;;10.25;41.06;99094.44;5054545;28;20111;-62
2022/05/11 01:00:38;;;;;;;2.38;1.30;;;;;;;10.12;40.72;99091.38;5054582;28;20104;-62
2022/05/11 01:03:09;;;;;;;2.08;1.50;;;;;;;10.18;41.41;99102.38;5053982;28;20028;-61
2022/05/11 01:05:35;;;;;;;2.93;1.37;;;;;;;10.12;40.24;99094.78;5054343;28;20107;-60
2022/05/11 01:08:01;;;;;;;1.40;1.20;;;;;;;10.17;41.23;99098.06;5054078;28;20989;-60
2022/05/11 01:10:30;;;;;;;2.00;1.20;;;;;;;10.12;41.78;99110.31;5054288;28;20095;-61
2022/05/11 01:13:00;;;;;;;3.83;1.30;;;;;;;9.76;41.23;99039.78;5054239;28;20522;-61
2022/05/11 01:15:27;;;;;;;1.48;1.33;;;;;;;10.16;40.83;99099.00;5053360;28;20029;-61
2022/05/11 01:17:53;;;;;;;2.78;1.42;;;;;;;10.11;40.62;99102.59;5054278;28;20021;-61
2022/05/11 01:20:22;;;;;;;1.85;1.30;;;;;;;10.15;40.98;99101.63;5053728;28;20032;-61
2022/05/11 01:23:10;;;;;;;1.73;1.33;;;;;;;10.11;41.18;99100.84;5053879;28;20382;-60
2022/05/11 01:25:36;;;;;;;2.53;1.45;;;;;;;10.12;40.99;99109.47;5053970;28;20100;-60
2022/05/11 01:28:13;;;;;;;1.58;1.08;;;;;;;9.75;40.56;99045.84;5069032;28;20267;-61
2022/05/11 01:30:51;;;;;;;3.97;1.25;;;;;;;9.68;41.26;99048.59;5050617;28;20503;-61
2022/05/11 01:33:22;;;;;;;3.25;1.40;;;;;;;9.73;41.34;99051.06;5053864;28;20037;-61
2022/05/11 01:36:21;;;;;;;4.00;1.33;;;;;;;10.02;41.87;99109.72;5053672;28;20398;-62
2022/05/11 01:38:50;;;;;;;2.72;1.60;;;;;;;10.03;41.00;99100.22;5053507;28;20044;-62
2022/05/11 01:41:33;;;;;;;1.75;1.20;;;;;;;9.68;41.45;99047.78;5051896;28;20021;-61
2022/05/11 01:44:02;;;;;;;1.92;1.35;;;;;;;9.62;41.90;99045.34;5053455;28;20067;-60
2022/05/11 01:46:27;;;;;;;3.13;1.63;;;;;;;9.93;41.35;99098.78;5052349;28;20446;-61
2022/05/11 01:48:53;;;;;;;3.00;1.25;;;;;;;9.87;41.75;99102.41;5051230;28;20494;-60
2022/05/11 01:51:20;;;;;;;2.10;1.08;;;;;;;9.93;41.16;99094.47;5035728;28;20079;-61
2022/05/11 01:53:47;;;;;;;3.78;1.60;;;;;;;9.84;41.46;99092.97;5041763;28;20474;-61
2022/05/11 01:56:14;;;;;;;2.17;1.30;;;;;;;9.81;41.21;99087.91;5052522;28;20864;-62
2022/05/11 01:58:39;;;;;;;3.55;1.20;;;;;;;9.84;41.25;99081.78;5035477;28;20036;-63
2022/05/11 02:01:05;;;;;;;3.38;1.35;;;;;;;9.80;41.21;99093.94;5032385;28;20029;-62
2022/05/11 02:03:31;;;;;;;2.08;1.23;;;;;;;9.78;41.85;99089.75;5030037;28;20111;-61
2022/05/11 02:08:46;;;;;;;1.80;1.17;;;;;;;9.86;41.44;99087.75;5053046;28;20402;-62
2022/05/11 02:11:14;;;;;;;3.85;1.40;;;;;;;9.91;41.90;99096.25;5052139;28;20040;-62
2022/05/11 02:13:39;;;;;;;2.53;1.40;;;;;;;9.86;42.00;99080.00;5033714;28;20505;-62
2022/05/11 02:16:05;;;;;;;2.67;1.48;;;;;;;9.92;42.54;99087.59;5040484;28;20026;-62
2022/05/11 02:18:31;;;;;;;2.97;1.60;;;;;;;9.88;41.65;99080.00;5047277;28;20025;-63
2022/05/11 02:20:57;;;;;;;1.98;1.40;;;;;;;9.87;41.48;99088.63;5053047;28;20505;-62
2022/05/11 02:23:24;;;;;;;2.10;1.25;;;;;;;9.89;42.84;99079.94;5052395;28;20025;-63
2022/05/11 02:25:51;;;;;;;3.13;1.20;;;;;;;9.89;41.52;99103.22;5044841;28;20078;-63
2022/05/11 02:28:21;;;;;;;1.67;1.35;;;;;;;9.89;41.27;99071.31;5038583;28;20482;-62
2022/05/11 02:30:48;;;;;;;3.80;1.13;;;;;;;9.94;41.43;99082.38;5039943;28;20088;-62
2022/05/11 02:33:14;;;;;;;1.42;1.30;;;;;;;9.97;41.76;99070.19;5044592;28;20094;-62
2022/05/11 02:35:41;;;;;;;2.72;1.25;;;;;;;10.01;41.31;99076.16;5052350;28;20116;-62
2022/05/11 02:38:12;;;;;;;3.58;1.70;;;;;;;10.11;41.58;99090.50;5052311;28;20382;-62
2022/05/11 02:40:40;;;;;;;1.93;1.30;;;;;;;10.17;41.53;99071.34;5049746;28;20041;-62
2022/05/11 02:43:06;;;;;;;2.88;1.33;;;;;;;10.18;42.11;99076.50;5045624;28;20036;-62
2022/05/11 02:45:34;;;;;;;2.92;1.25;;;;;;;9.90;40.40;99013.53;5051641;28;20090;-60
2022/05/11 02:48:02;;;;;;;2.53;1.50;;;;;;;10.23;40.82;99073.75;5052112;28;20029;-61
2022/05/11 02:50:32;;;;;;;2.00;1.15;;;;;;;9.91;40.30;99008.31;5052306;28;20055;-59
2022/05/11 02:52:57;;;;;;;2.45;1.50;;;;;;;10.33;41.34;99070.03;5049163;28;20040;-60
2022/05/11 02:55:23;;;;;;;4.38;1.20;;;;;;;10.26;40.51;99067.66;5051265;28;20021;-60
2022/05/11 02:57:49;;;;;;;1.50;1.20;;;;;;;10.30;40.46;99070.13;5052128;28;20486;-59
2022/05/11 03:00:18;;;;;;;1.80;1.20;;;;;;;10.32;41.09;99065.72;5051824;28;20382;-60
2022/05/11 03:02:44;;;;;;;2.95;1.90;;;;;;;10.24;41.15;99054.75;5052268;28;20075;-61
2022/05/11 03:05:11;;;;;;;7.85;2.75;;;;;;;10.28;40.16;99047.75;5051788;28;20033;-60
2022/05/11 03:07:37;;;;;;;4.38;3.10;;;;;;;10.28;40.41;99060.69;5051835;28;20037;-60
2022/05/11 03:10:04;;;;;;;5.03;3.00;;;;;;;10.37;40.22;99063.03;5051781;28;20380;-61
2022/05/11 03:12:31;;;;;;;6.38;3.35;;;;;;;10.36;40.59;99071.69;5052146;28;20045;-59
2022/05/11 03:14:57;;;;;;;5.57;4.15;;;;;;;10.35;40.73;99065.66;5051957;28;20032;-59
2022/05/11 03:17:23;;;;;;;5.00;3.30;;;;;;;10.35;40.03;99060.47;5047458;28;20025;-60
2022/05/11 03:19:49;;;;;;;9.43;5.82;;;;;;;10.38;40.27;99067.31;5033213;28;20026;-60
2022/05/11 03:22:15;;;;;;;14.73;8.32;;;;;;;10.43;40.38;99056.81;5051821;28;20112;-61
2022/05/11 03:24:40;;;;;;;14.98;9.13;;;;;;;10.50;40.23;99050.53;5051644;28;20467;-60
2022/05/11 03:27:06;;;;;;;13.35;11.15;;;;;;;10.39;40.81;99037.97;5051826;28;20037;-60
2022/05/11 03:29:32;;;;;;;19.33;14.25;;;;;;;10.44;40.94;99059.34;5051837;28;20398;-60
2022/05/11 03:34:42;;;;;;;20.02;12.80;;;;;;;10.49;40.65;99061.81;5051976;28;20490;-60
2022/05/11 03:37:10;;;;;;;15.43;11.10;;;;;;;10.20;40.59;98996.22;5051592;28;20039;-60
2022/05/11 03:39:36;;;;;;;12.80;10.50;;;;;;;10.51;41.11;99055.66;5055238;28;20091;-60
2022/05/11 03:42:04;;;;;;;15.70;11.23;;;;;;;10.56;41.27;99049.50;5055966;28;20029;-60
2022/05/11 03:44:29;;;;;;;17.73;10.63;;;;;;;10.37;41.55;99060.44;5055866;28;20036;-61
2022/05/11 03:46:55;;;;;;;14.52;10.80;;;;;;;10.52;40.67;99059.13;5055969;28;20024;-60
2022/05/11 03:49:21;;;;;;;16.55;10.93;;;;;;;10.55;40.95;99056.44;5055492;28;20052;-60
2022/05/11 03:51:47;;;;;;;13.13;9.90;;;;;;;10.42;41.08;99065.47;5044099;28;20025;-60
2022/05/11 03:54:13;;;;;;;16.60;10.13;;;;;;;10.57;40.97;99061.56;5049213;28;20402;-59
2022/05/11 03:56:39;;;;;;;17.30;8.52;;;;;;;10.48;40.29;99060.94;5055422;28;20029;-59
2022/05/11 03:59:04;;;;;;;13.35;8.10;;;;;;;10.49;40.82;99065.25;5055404;28;20148;-59
2022/05/11 04:01:30;;;;;;;10.80;7.05;;;;;;;10.44;40.89;99072.28;5055634;28;20432;-59
2022/05/11 04:03:56;;;;;;;13.27;7.97;;;;;;;10.55;41.05;99060.78;5055458;28;20486;-62
2022/05/11 04:06:21;;;;;;;14.30;7.55;;;;;;;10.60;40.63;99067.47;5055375;28;20047;-61
2022/05/11 04:08:47;;;;;;;13.88;7.72;;;;;;;10.48;41.22;99066.13;5055103;28;20068;-60
2022/05/11 04:11:12;;;;;;;12.60;8.18;;;;;;;10.50;41.35;99058.31;5055253;28;20620;-61
2022/05/11 04:13:40;;;;;;;14.55;8.02;;;;;;;10.58;40.89;99064.09;5055261;28;20522;-61
2022/05/11 04:16:07;;;;;;;13.02;7.30;;;;;;;10.51;40.53;99058.25;5055393;28;20025;-61
2022/05/11 04:18:33;;;;;;;10.63;6.90;;;;;;;10.57;42.09;99057.22;5055051;28;20044;-62
2022/05/11 04:20:59;;;;;;;9.52;6.22;;;;;;;10.62;40.84;99046.75;5054757;28;20048;-62
2022/05/11 04:23:24;;;;;;;13.38;6.40;;;;;;;10.69;39.96;99056.00;5055428;28;20029;-62
2022/05/11 04:25:50;;;;;;;11.13;7.30;;;;;;;10.70;40.26;99048.19;5054890;28;20033;-62
2022/05/11 04:28:15;;;;;;;12.90;8.50;;;;;;;10.78;41.37;99044.50;5042200;28;20014;-61
2022/05/11 04:30:41;;;;;;;22.40;10.90;;;;;;;10.78;40.51;99047.91;5049520;28;20036;-61
2022/05/11 04:33:08;;;;;;;12.55;9.13;;;;;;;10.86;40.30;99047.69;5054577;28;20029;-61
2022/05/11 04:35:34;;;;;;;14.13;9.45;;;;;;;10.91;39.73;99034.56;5051123;28;20079;-61
2022/05/11 04:38:05;;;;;;;12.23;8.90;;;;;;;10.85;40.30;99017.50;5044659;28;20581;-62
2022/05/11 04:40:31;;;;;;;12.57;7.35;;;;;;;10.85;40.07;99027.84;5042464;28;20029;-61
2022/05/11 04:42:57;;;;;;;11.57;6.45;;;;;;;11.01;39.56;99029.00;5048402;28;20398;-62
2022/05/11 04:45:23;;;;;;;10.43;6.45;;;;;;;11.03;39.85;99026.38;5048427;28;20029;-61
2022/05/11 04:47:49;;;;;;;9.50;5.70;;;;;;;11.11;39.08;99041.69;5047923;28;20375;-61
2022/05/11 04:50:16;;;;;;;8.73;4.90;;;;;;;11.20;39.48;99034.44;5048068;28;20039;-61
2022/05/11 04:52:43;;;;;;;7.47;3.53;;;;;;;11.30;39.09;99034.09;5045786;28;20036;-61
2022/05/11 04:55:10;;;;;;;7.03;3.47;;;;;;;11.43;39.00;99026.72;5044184;28;20027;-61
2022/05/11 04:57:37;;;;;;;6.72;3.50;;;;;;;11.42;38.05;99025.06;5048535;28;20025;-61
2022/05/11 05:00:10;;;;;;;9.52;3.83;;;;;;;11.64;38.04;99025.94;5053946;28;20032;-62
2022/05/11 05:02:36;;;;;;;4.80;3.00;;;;;;;11.74;38.59;99023.88;5053913;28;20037;-61
2022/05/11 05:05:05;;;;;;;6.95;2.40;;;;;;;11.85;38.50;99024.31;5053915;28;20095;-61
2022/05/11 05:07:34;;;;;;;4.32;2.60;;;;;;;11.90;37.68;99021.56;5053115;28;20068;-59
2022/05/11 05:10:04;;;;;;;5.85;3.63;;;;;;;12.01;37.85;99022.00;5045066;28;20115;-60
2022/05/11 05:12:30;;;;;;;4.75;2.53;;;;;;;12.15;37.56;99013.72;5047056;28;20044;-60
2022/05/11 05:14:55;;;;;;;3.95;2.42;;;;;;;12.32;37.86;99009.63;5053927;28;20029;-59
2022/05/11 05:17:21;;;;;;;5.97;3.45;;;;;;;12.44;36.28;99014.31;5053892;28;20031;-59
2022/05/11 05:19:47;;;;;;;4.47;2.60;;;;;;;12.58;36.56;99013.75;5053867;28;20025;-60
2022/05/11 05:22:13;;;;;;;5.00;2.63;;;;;;;12.64;35.82;99004.88;5053833;28;20044;-60
2022/05/11 05:24:39;;;;;;;6.32;2.28;;;;;;;12.88;36.52;99009.06;5053710;28;20029;-62
2022/05/11 05:27:05;;;;;;;3.83;2.05;;;;;;;12.78;34.82;98987.81;5049492;28;20021;-61
2022/05/11 05:32:15;;;;;;;4.28;2.30;;;;;;;13.21;34.64;99005.06;5051888;28;20033;-63
2022/05/11 05:34:45;;;;;;;3.80;2.05;;;;;;;13.42;35.83;99005.94;5051629;28;20033;-62
2022/05/11 05:37:12;;;;;;;5.07;2.22;;;;;;;13.46;34.00;99015.28;5051325;28;20524;-62
2022/05/11 05:39:38;;;;;;;4.90;2.30;;;;;;;13.33;34.76;99001.13;5051177;28;20112;-63
2022/05/11 05:42:04;;;;;;;5.47;2.55;;;;;;;13.19;34.10;99004.31;5051180;28;20021;-61
2022/05/11 05:44:32;;;;;;;6.25;2.38;;;;;;;13.66;32.97;99003.16;5050882;28;20017;-61
2022/05/11 05:47:08;;;;;;;3.45;1.50;;;;;;;13.84;33.06;99006.66;5051405;28;20028;-63
2022/05/11 05:49:34;;;;;;;4.35;2.20;;;;;;;13.86;33.82;99005.69;5035670;28;20021;-61
2022/05/11 05:52:01;;;;;;;6.57;2.53;;;;;;;13.81;33.43;98999.84;5041141;28;20112;-62
2022/05/11 05:54:30;;;;;;;4.47;2.42;;;;;;;13.45;33.09;98952.03;5038742;28;20029;-62
2022/05/11 05:56:57;;;;;;;6.47;2.20;;;;;;;13.73;32.64;98997.59;5045669;28;20025;-62
2022/05/11 05:59:22;;;;;;;3.53;2.03;;;;;;;13.91;32.29;98998.50;5043823;28;20036;-62
2022/05/11 06:01:49;;;;;;;9.75;2.53;;;;;;;14.16;33.14;99005.16;5044123;28;20378;-61
2022/05/11 06:04:15;;;;;;;5.60;2.45;;;;;;;14.37;33.56;98997.25;5044565;28;20109;-63
2022/05/11 06:06:41;;;;;;;5.57;2.30;;;;;;;14.19;32.42;98994.59;5043688;28;20048;-62
2022/05/11 06:09:07;;;;;;;6.38;2.15;;;;;;;14.30;32.00;98991.50;5043881;28;20505;-62
2022/05/11 06:11:32;;;;;;;4.18;3.08;;;;;;;14.34;31.79;98990.44;5044982;28;20029;-62
2022/05/11 06:13:59;;;;;;;6.28;2.72;;;;;;;14.55;32.25;98980.72;5043349;28;20154;-62
2022/05/11 06:16:24;;;;;;;6.47;3.00;;;;;;;14.66;31.60;98991.50;5043041;28;20036;-62
2022/05/11 06:18:50;;;;;;;6.18;2.42;;;;;;;14.70;31.24;98981.75;5044172;28;20053;-62
2022/05/11 06:21:16;;;;;;;5.25;2.05;;;;;;;14.73;32.19;98980.75;5045946;28;20021;-63
2022/05/11 06:23:42;;;;;;;3.90;1.80;;;;;;;14.87;32.36;98978.31;5045820;28;20429;-63
2022/05/11 06:26:09;;;;;;;3.83;1.73;;;;;;;15.18;31.65;98974.13;5041970;28;20026;-63
2022/05/11 06:28:37;;;;;;;6.75;2.13;;;;;;;14.84;32.02;98928.94;5046212;28;20105;-63
2022/05/11 06:31:03;;;;;;;5.97;2.20;;;;;;;15.31;31.85;98969.13;5042963;28;20055;-63
2022/05/11 06:33:28;;;;;;;5.28;2.28;;;;;;;15.32;31.39;98971.66;5043432;28;20060;-62
2022/05/11 06:35:54;;;;;;;7.53;2.58;;;;;;;15.40;31.47;98965.19;5045386;28;20057;-62
2022/05/11 06:38:20;;;;;;;3.22;2.08;;;;;;;15.58;31.56;98968.59;5042897;28;20094;-62
2022/05/11 06:40:45;;;;;;;5.75;2.58;;;;;;;15.93;31.74;98966.66;5040862;28;20025;-63
2022/05/11 06:43:12;;;;;;;5.57;2.60;;;;;;;15.79;32.05;98963.97;5048013;28;20032;-63
2022/05/11 06:45:38;;;;;;;6.57;2.28;;;;;;;15.61;30.85;98965.81;5048602;28;20576;-63
2022/05/11 06:48:03;;;;;;;9.02;2.40;;;;;;;15.83;32.22;98962.88;5046891;28;20025;-63
2022/05/11 06:50:29;;;;;;;5.07;2.17;;;;;;;15.68;30.87;98957.53;5044116;28;20073;-63
2022/05/11 06:52:56;;;;;;;5.72;2.03;;;;;;;15.96;31.25;98963.91;5042672;28;20059;-63
2022/05/11 07:00:50;;;;;;;5.45;2.50;;;;;;;15.90;31.19;98966.00;5045102;28;20116;-63
2022/05/11 07:03:16;;;;;;;6.03;2.22;;;;;;;15.87;30.91;98961.78;5043461;28;20080;-62
2022/05/11 07:05:43;;;;;;;3.42;1.90;;;;;;;15.42;30.36;98909.38;5044312;28;20473;-61
2022/05/11 07:08:10;;;;;;;2.97;1.80;;;;;;;15.87;30.41;98961.78;5041510;28;20043;-61
2022/05/11 07:10:42;;;;;;;4.88;1.70;;;;;;;15.88;30.29;98950.44;5039896;28;20036;-62
2022/05/11 07:13:09;;;;;;;2.17;1.60;;;;;;;15.73;30.45;98962.50;5050066;28;20552;-62
2022/05/11 07:15:34;;;;;;;2.28;1.90;;;;;;;15.69;30.44;98961.84;5051988;28;20037;-63
2022/05/11 07:18:03;;;;;;;4.63;1.60;;;;;;;15.60;30.93;98959.72;5051588;28;20035;-63
2022/05/11 07:20:35;;;;;;;4.35;1.70;;;;;;;15.65;30.78;98952.50;5051260;28;20029;-63
2022/05/11 07:23:03;;;;;;;3.92;1.40;;;;;;;15.53;30.57;98934.88;5051745;28;20025;-63
2022/05/11 07:25:29;;;;;;;3.65;1.90;;;;;;;15.63;29.91;98954.31;5047991;28;20115;-63
2022/05/11 07:27:57;;;;;;;6.18;2.17;;;;;;;15.75;30.49;98954.59;5041583;28;20065;-63
2022/05/11 07:30:26;;;;;;;2.30;2.05;;;;;;;15.42;30.54;98905.91;5042578;28;20029;-64
2022/05/11 07:32:52;;;;;;;6.50;2.00;;;;;;;15.51;29.84;98950.63;5044330;28;20475;-64
2022/05/11 07:35:18;;;;;;;7.57;1.65;;;;;;;15.54;28.85;98945.22;5033459;28;20052;-63
2022/05/11 07:37:47;;;;;;;5.20;1.80;;;;;;;15.74;29.08;98947.69;5051162;28;20036;-63
2022/05/11 07:40:16;;;;;;;6.72;2.08;;;;;;;15.41;29.42;98899.84;5051720;28;20497;-62
2022/05/11 07:42:43;;;;;;;5.65;1.80;;;;;;;15.73;29.21;98940.78;5051577;28;20049;-63
2022/05/11 07:45:10;;;;;;;5.60;2.00;;;;;;;15.64;29.02;98940.34;5051382;28;20025;-62
2022/05/11 07:47:36;;;;;;;5.55;1.90;;;;;;;15.74;28.97;98945.09;5049460;28;20025;-62
2022/05/11 07:50:02;;;;;;;3.88;1.92;;;;;;;15.66;28.48;98941.13;5034227;28;20040;-62
2022/05/11 07:52:30;;;;;;;3.08;1.65;;;;;;;15.64;28.63;98895.97;5030834;28;20164;-62
2022/05/11 07:54:55;;;;;;;6.00;1.73;;;;;;;15.99;28.47;98932.38;5030295;28;20067;-63
2022/05/11 08:00:08;;;;;;;6.78;1.73;;;;;;;16.19;28.39;98922.59;5029449;28;20033;-62
2022/05/11 08:02:35;;;;;;;2.92;1.77;;;;;;;16.38;27.67;98925.81;5031523;28;20017;-62
2022/05/11 08:05:04;;;;;;;2.63;1.88;;;;;;;16.24;27.51;98870.06;5031250;28;20032;-62
2022/05/11 08:07:46;;;;;;;5.88;2.45;;;;;;;16.71;27.54;98931.78;5031802;28;20076;-63
2022/05/11 08:10:19;;;;;;;3.45;2.10;;;;;;;16.88;27.82;98905.50;5030940;28;20053;-63
2022/05/11 08:12:46;;;;;;;5.07;1.70;;;;;;;16.91;27.42;98917.56;5018095;28;20041;-63
2022/05/11 08:15:13;;;;;;;4.72;1.67;;;;;;;16.80;27.13;98873.72;5011383;28;20026;-62
2022/05/11 08:17:42;;;;;;;3.38;1.50;;;;;;;17.23;26.94;98917.38;5011453;28;20029;-62
2022/05/11 08:20:14;;;;;;;3.65;1.70;;;;;;;17.08;28.49;98878.13;5011804;28;20687;-62
2022/05/11 08:22:45;;;;;;;4.00;1.88;;;;;;;17.22;27.05;98913.91;5031339;28;20057;-62
2022/05/11 08:25:14;;;;;;;1.85;1.60;;;;;;;17.32;26.97;98898.47;5051101;28;20108;-62
2022/05/11 08:27:40;;;;;;;4.38;1.90;;;;;;;17.48;27.51;98894.91;5036357;28;20033;-63
2022/05/11 08:35:36;;;;;;;4.68;1.67;;;;;;;17.97;26.52;98889.19;5033605;28;20494;-63
2022/05/11 08:38:03;;;;;;;4.20;2.25;;;;;;;17.99;26.60;98878.63;5033934;28;20013;-64
2022/05/11 08:40:35;;;;;;;4.03;1.65;;;;;;;17.97;27.55;98904.06;5036266;28;20170;-64
2022/05/11 08:43:02;;;;;;;3.53;2.00;;;;;;;17.99;26.63;98882.06;5033187;28;20108;-64
2022/05/11 08:45:40;;;;;;;3.80;1.90;;;;;;;17.55;25.76;98846.47;5034059;28;20135;-62
2022/05/11 08:48:10;;;;;;;4.97;1.88;;;;;;;17.83;25.94;98899.69;5030762;28;20033;-62
2022/05/11 08:50:41;;;;;;;4.15;1.90;;;;;;;17.58;26.41;98880.31;5033909;28;20025;-63
2022/05/11 08:53:18;;;;;;;3.47;1.75;;;;;;;17.61;26.59;98843.44;5031972;28;20041;-63
2022/05/11 08:55:47;;;;;;;3.05;1.40;;;;;;;17.87;27.01;98886.31;5032196;28;20033;-63
2022/05/11 08:58:23;;;;;;;13.45;2.30;;;;;;;17.92;28.31;98888.66;5033648;28;20044;-64
2022/05/11 09:00:51;;;;;;;4.65;1.67;;;;;;;17.64;26.40;98837.16;5033836;28;20051;-64
2022/05/11 09:03:33;;;;;;;5.97;2.03;;;;;;;18.07;28.04;98885.03;5030812;28;20017;-64
2022/05/11 09:06:17;;;;;;;4.20;1.85;;;;;;;18.00;27.38;98886.38;5031539;28;20083;-63
2022/05/11 09:08:43;;;;;;;5.60;1.70;;;;;;;18.08;26.83;98878.84;5031701;28;20120;-62
2022/05/11 09:11:15;;;;;;;3.47;1.55;;;;;;;18.05;27.33;98892.13;5033743;28;20029;-63
2022/05/11 09:13:44;;;;;;;5.43;1.83;;;;;;;17.97;26.55;98885.72;5033802;28;20114;-63
2022/05/11 09:16:18;;;;;;;6.22;1.77;;;;;;;17.73;25.88;98887.19;5033255;28;20029;-64
2022/05/11 09:18:44;;;;;;;8.25;1.80;;;;;;;17.47;26.44;98899.28;5031834;28;20103;-63
2022/05/11 09:21:20;;;;;;;5.80;2.08;;;;;;;17.54;26.55;98894.53;5026086;28;20360;-63
2022/05/11 09:24:08;;;;;;;3.25;1.30;;;;;;;17.35;26.68;98847.72;5018574;28;20037;-63
2022/05/11 09:26:46;;;;;;;3.55;1.52;;;;;;;17.65;26.25;98892.06;5034722;28;20386;-63
2022/05/11 09:29:19;;;;;;;3.75;1.50;;;;;;;17.64;26.48;98893.00;5032247;28;20021;-63
2022/05/11 09:31:46;;;;;;;6.78;1.83;;;;;;;17.53;26.72;98900.69;5031449;28;20060;-63
2022/05/11 09:34:24;;;;;;;3.90;1.67;;;;;;;17.46;27.85;98917.72;5033195;28;20075;-62
2022/05/11 09:36:55;;;;;;;2.45;1.48;;;;;;;17.69;26.73;98890.09;5028966;28;20037;-63
2022/05/11 09:39:21;;;;;;;9.15;1.90;;;;;;;17.55;26.97;98909.28;5033038;28;20180;-64
2022/05/11 09:41:50;;;;;;;4.78;1.67;;;;;;;17.54;27.86;98892.75;5032086;28;20036;-63
2022/05/11 09:44:28;;;;;;;4.78;1.88;;;;;;;17.43;26.97;98911.75;5032226;28;20013;-64
2022/05/11 09:46:55;;;;;;;2.88;1.40;;;;;;;17.50;28.21;98898.25;5031659;28;20037;-63
2022/05/11 09:49:20;;;;;;;5.18;1.65;;;;;;;17.51;27.04;98897.34;5031597;28;20034;-64
2022/05/11 09:51:45;;;;;;;6.07;1.73;;;;;;;17.50;27.28;98908.72;5031774;28;20028;-64
2022/05/11 09:54:29;;;;;;;4.55;1.73;;;;;;;17.44;26.74;98889.00;5032331;28;20527;-62
2022/05/11 09:56:58;;;;;;;5.28;1.70;;;;;;;17.28;26.63;98846.44;5029032;28;20100;-62
2022/05/11 09:59:30;;;;;;;3.58;1.80;;;;;;;17.55;27.16;98894.41;5030077;28;20025;-62
2022/05/11 10:02:34;;;;;;;3.67;1.70;;;;;;;17.43;27.54;98903.91;5032875;28;20025;-62
2022/05/11 10:05:27;;;;;;;3.70;1.70;;;;;;;17.68;26.95;98897.09;5032392;28;20475;-63
2022/05/11 10:07:55;;;;;;;7.97;1.85;;;;;;;17.76;27.11;98900.06;5030795;28;20053;-62
2022/05/11 10:10:37;;;;;;;2.75;1.50;;;;;;;17.31;26.58;98854.91;5032472;28;20033;-62
2022/05/11 10:13:11;;;;;;;4.70;1.70;;;;;;;17.55;26.06;98911.91;5029402;28;20026;-62
2022/05/11 10:24:11;;;;;;;3.47;1.63;;;;;;;17.51;26.69;98908.63;5033293;28;20033;-62
2022/05/11 10:27:07;;;;;;;3.63;1.85;;;;;;;17.48;26.57;98900.97;5032257;28;20440;-62
2022/05/11 10:29:44;;;;;;;4.18;1.65;;;;;;;17.59;27.36;98901.16;5031259;28;20053;-62
2022/05/11 10:32:25;;;;;;;3.92;2.00;;;;;;;17.62;27.04;98901.91;5031345;28;20025;-63
2022/05/11 10:35:11;;;;;;;3.78;1.98;;;;;;;17.64;28.27;98911.31;5029296;28;20034;-64
2022/05/11 10:38:02;;;;;;;6.03;2.20;;;;;;;17.64;27.55;98900.03;5032156;28;20084;-62
2022/05/11 10:40:59;;;;;;;8.15;1.90;;;;;;;17.73;27.56;98905.50;5030928;28;20014;-63
2022/05/11 10:43:36;;;;;;;6.35;3.17;;;;;;;17.67;29.08;98905.91;5030576;28;20057;-62
2022/05/11 10:46:14;;;;;;;6.07;2.30;;;;;;;17.73;27.65;98904.69;5030919;28;20471;-63
2022/05/11 10:49:04;;;;;;;5.25;1.90;;;;;;;17.71;30.27;98889.03;5030794;28;20036;-63
2022/05/11 10:51:30;;;;;;;4.78;2.17;;;;;;;17.57;29.65;98894.31;5027755;28;20479;-63
2022/05/11 10:54:20;;;;;;;3.92;1.90;;;;;;;17.65;28.65;98883.38;5030252;28;20036;-63
2022/05/11 10:56:59;;;;;;;5.68;2.17;;;;;;;17.41;29.04;98835.09;5020435;28;20537;-62
2022/05/11 10:59:52;;;;;;;3.30;1.73;;;;;;;17.80;28.82;98881.53;5029112;28;20040;-63
2022/05/11 11:02:46;;;;;;;3.38;2.05;;;;;;;17.84;30.61;98883.88;5031513;28;20033;-62
2022/05/11 11:05:28;;;;;;;4.45;1.60;;;;;;;17.62;28.32;98837.28;5030635;28;20048;-63
2022/05/11 11:08:24;;;;;;;3.28;1.75;;;;;;;17.98;28.36;98876.94;5032443;28;20030;-62
2022/05/11 11:10:58;;;;;;;3.13;2.00;;;;;;;17.99;29.89;98873.38;5011030;28;20037;-62
2022/05/11 11:13:37;;;;;;;6.60;1.65;;;;;;;17.83;28.92;98868.25;5015385;28;20088;-63
2022/05/11 11:16:04;;;;;;;5.75;1.70;;;;;;;18.01;28.23;98861.00;5042088;28;20116;-62
2022/05/11 11:18:37;;;;;;;5.63;1.50;;;;;;;18.01;27.98;98872.31;5032607;28;20038;-62
2022/05/11 11:21:06;;;;;;;6.93;1.70;;;;;;;18.01;27.59;98856.59;5012678;28;20570;-61
2022/05/11 11:23:42;;;;;;;3.92;1.83;;;;;;;17.87;27.35;98812.09;5016802;28;20033;-63
2022/05/11 11:26:30;;;;;;;5.15;1.85;;;;;;;18.20;27.64;98852.75;5039859;28;20506;-64
2022/05/11 11:28:55;;;;;;;2.00;1.60;;;;;;;18.23;27.46;98855.19;5017260;28;20038;-64
2022/05/11 11:31:22;;;;;;;4.47;1.60;;;;;;;18.22;27.34;98845.66;5014204;28;20033;-63
2022/05/11 11:33:54;;;;;;;6.55;1.90;;;;;;;18.20;28.37;98842.28;5032270;28;20059;-64
2022/05/11 11:36:28;;;;;;;2.03;1.67;;;;;;;18.44;27.54;98837.16;5041051;28;20493;-63
2022/05/11 11:38:59;;;;;;;2.50;1.83;;;;;;;18.52;27.97;98839.28;5046119;28;20037;-63
2022/05/11 11:41:30;;;;;;;4.97;1.98;;;;;;;18.38;28.60;98800.88;5030641;28;20021;-63
2022/05/11 11:44:00;;;;;;;3.83;1.52;;;;;;;18.59;28.12;98827.44;5012905;28;20026;-64
2022/05/11 11:46:36;;;;;;;3.65;2.03;;;;;;;18.59;27.34;98824.81;5014814;28;20033;-63
2022/05/11 11:49:27;;;;;;;3.65;2.15;;;;;;;18.73;27.69;98832.56;5020856;28;20483;-63
2022/05/11 11:52:00;;;;;;;2.20;1.70;;;;;;;18.43;27.84;98780.44;5015528;28;20116;-63
2022/05/11 11:54:38;;;;;;;1.88;1.70;;;;;;;18.83;28.34;98822.28;5025754;28;20088;-62
2022/05/11 11:57:13;;;;;;;3.00;1.98;;;;;;;18.71;27.40;98823.13;5024611;28;20084;-62
2022/05/11 11:59:42;;;;;;;2.20;1.58;;;;;;;18.53;27.28;98778.03;5031052;28;20025;-63
2022/05/11 12:02:19;;;;;;;3.33;1.95;;;;;;;18.70;27.74;98798.69;5033746;28;20063;-62
2022/05/11 12:05:11;;;;;;;3.67;1.83;;;;;;;18.47;27.77;98768.81;5033298;28;20026;-61
2022/05/11 12:16:53;;;;;;;6.05;1.88;;;;;;;18.82;26.88;98812.72;5051076;28;20036;-63
2022/05/11 12:19:21;;;;;;;6.28;2.13;;;;;;;18.60;27.10;98760.94;5021631;28;20032;-62
2022/05/11 12:22:14;;;;;;;2.63;1.80;;;;;;;19.06;27.38;98817.22;5026307;28;20033;-62
2022/05/11 12:24:47;;;;;;;4.30;1.88;;;;;;;18.80;27.98;98760.34;5030925;28;20499;-62
2022/05/11 12:27:31;;;;;;;3.65;1.80;;;;;;;19.04;26.24;98780.59;5031473;28;20053;-62